Terminal Aerodrome Forecast
Issued by NWS Lake Charles, LA

Home | Current Version | Previous Version | Text Only | Print | Product List | Glossary On
Versions: 1 2 3 4 5 6 7 8 9 10 11 12 13
000
FTUS44 KLCH 030559
TAFAEX
TAF
KAEX 030559Z 0306/0406 09009KT P6SM -RA OVC045
     FM031400 09014G19KT 6SM -RA BR OVC025
     FM031800 07013KT 2SM -RA BR OVC007=

USA.gov is the U.S. government's official web portal to all federal, state and local government web resources and services.